Terminal Aerodrome Forecast
Issued by NWS

Home | Current Version | Previous Version | Text Only | Print | Product List | Glossary On
Versions: 1 2 3 4 5 6 7 8 9 10 11 12 13 14 15 16 17
000
FTUS46 KMTR 191730
TAFSTS
TAF
KSTS 191730Z 1918/2018 17005KT P6SM FEW012
     FM192100 16010KT P6SM SKC
     FM200500 15005KT P6SM OVC004
     FM201200 VRB02KT 3SM BR OVC003
     FM201700 20003KT P6SM FEW008=

USA.gov is the U.S. government's official web portal to all federal, state and local government web resources and services.